sensor_id;sensor_type;location;lat;lon;timestamp;temperature;humidity
17053;DHT22;8643;48.824;11.422;2024-01-11T00:00:50;-6.80;99.90
17053;DHT22;8643;48.824;11.422;2024-01-11T00:03:19;-6.80;99.90
17053;DHT22;8643;48.824;11.422;2024-01-11T00:05:47;-6.70;99.90
17053;DHT22;8643;48.824;11.422;2024-01-11T00:08:16;-6.70;99.90
17053;DHT22;8643;48.824;11.422;2024-01-11T00:10:46;-6.70;99.90
17053;DHT22;8643;48.824;11.422;2024-01-11T00:13:14;-6.70;99.90
17053;DHT22;8643;48.824;11.422;2024-01-11T00:15:43;-6.70;99.90
17053;DHT22;8643;48.824;11.422;2024-01-11T00:18:12;-6.70;99.90
17053;DHT22;8643;48.824;11.422;2024-01-11T00:20:40;-6.70;99.90
17053;DHT22;8643;48.824;11.422;2024-01-11T00:23:09;-6.80;99.90
17053;DHT22;8643;48.824;11.422;2024-01-11T00:25:38;-6.90;99.90
17053;DHT22;8643;48.824;11.422;2024-01-11T00:28:07;-6.90;99.90
17053;DHT22;8643;48.824;11.422;2024-01-11T00:30:36;-6.80;99.90
17053;DHT22;8643;48.824;11.422;2024-01-11T00:33:04;-6.90;99.90
17053;DHT22;8643;48.824;11.422;2024-01-11T00:35:33;-6.90;99.90
17053;DHT22;8643;48.824;11.422;2024-01-11T00:38:02;-6.90;99.90
17053;DHT22;8643;48.824;11.422;2024-01-11T00:43:00;-6.90;99.90
17053;DHT22;8643;48.824;11.422;2024-01-11T00:45:30;-6.90;99.90
17053;DHT22;8643;48.824;11.422;2024-01-11T00:47:58;-7.00;99.90
17053;DHT22;8643;48.824;11.422;2024-01-11T00:50:27;-7.00;99.90
17053;DHT22;8643;48.824;11.422;2024-01-11T00:52:56;-7.00;99.90
17053;DHT22;8643;48.824;11.422;2024-01-11T00:55:24;-7.00;99.90
17053;DHT22;8643;48.824;11.422;2024-01-11T00:57:53;-6.90;99.90
17053;DHT22;8643;48.824;11.422;2024-01-11T01:00:21;-6.80;99.90
17053;DHT22;8643;48.824;11.422;2024-01-11T01:02:51;-6.80;99.90
17053;DHT22;8643;48.824;11.422;2024-01-11T01:05:20;-6.90;99.90
17053;DHT22;8643;48.824;11.422;2024-01-11T01:07:48;-7.00;99.90
17053;DHT22;8643;48.824;11.422;2024-01-11T01:10:17;-7.00;99.90
17053;DHT22;8643;48.824;11.422;2024-01-11T01:12:45;-7.10;99.90
17053;DHT22;8643;48.824;11.422;2024-01-11T01:15:13;-7.20;99.90
17053;DHT22;8643;48.824;11.422;2024-01-11T01:17:42;-7.20;99.90
17053;DHT22;8643;48.824;11.422;2024-01-11T01:20:13;-7.20;99.90
17053;DHT22;8643;48.824;11.422;2024-01-11T01:22:41;-7.20;99.90
17053;DHT22;8643;48.824;11.422;2024-01-11T01:25:10;-7.20;99.90
17053;DHT22;8643;48.824;11.422;2024-01-11T01:27:39;-7.30;99.90
17053;DHT22;8643;48.824;11.422;2024-01-11T01:30:07;-7.10;99.90
17053;DHT22;8643;48.824;11.422;2024-01-11T01:32:36;-7.10;99.90
17053;DHT22;8643;48.824;11.422;2024-01-11T01:35:05;-7.00;99.90
17053;DHT22;8643;48.824;11.422;2024-01-11T01:37:36;-7.00;99.90
17053;DHT22;8643;48.824;11.422;2024-01-11T01:40:06;-7.10;99.90
17053;DHT22;8643;48.824;11.422;2024-01-11T01:42:35;-8.00;99.90
17053;DHT22;8643;48.824;11.422;2024-01-11T01:45:08;-7.20;99.90
17053;DHT22;8643;48.824;11.422;2024-01-11T01:47:37;-7.20;99.90
17053;DHT22;8643;48.824;11.422;2024-01-11T01:50:10;-7.30;99.90
17053;DHT22;8643;48.824;11.422;2024-01-11T01:52:43;-7.50;99.90
17053;DHT22;8643;48.824;11.422;2024-01-11T01:55:12;-7.50;99.90
17053;DHT22;8643;48.824;11.422;2024-01-11T01:57:43;-7.50;99.90
17053;DHT22;8643;48.824;11.422;2024-01-11T02:00:14;-7.60;99.90
17053;DHT22;8643;48.824;11.422;2024-01-11T02:05:14;-7.40;99.90
17053;DHT22;8643;48.824;11.422;2024-01-11T02:07:46;-7.70;99.90
17053;DHT22;8643;48.824;11.422;2024-01-11T02:10:15;-7.60;99.90
17053;DHT22;8643;48.824;11.422;2024-01-11T02:12:44;-7.60;99.90
17053;DHT22;8643;48.824;11.422;2024-01-11T02:15:13;-7.50;99.90
17053;DHT22;8643;48.824;11.422;2024-01-11T02:17:42;-7.50;99.90
17053;DHT22;8643;48.824;11.422;2024-01-11T02:20:12;-7.40;99.90
17053;DHT22;8643;48.824;11.422;2024-01-11T02:22:42;-7.50;99.90
17053;DHT22;8643;48.824;11.422;2024-01-11T02:25:22;-7.60;99.90
17053;DHT22;8643;48.824;11.422;2024-01-11T02:27:50;-7.60;99.90
17053;DHT22;8643;48.824;11.422;2024-01-11T02:30:19;-7.60;99.90
17053;DHT22;8643;48.824;11.422;2024-01-11T02:32:48;-7.60;99.90
17053;DHT22;8643;48.824;11.422;2024-01-11T02:35:18;-7.60;99.90
17053;DHT22;8643;48.824;11.422;2024-01-11T02:37:48;-7.60;99.90
17053;DHT22;8643;48.824;11.422;2024-01-11T02:40:19;-7.60;99.90
17053;DHT22;8643;48.824;11.422;2024-01-11T02:42:48;-7.60;99.90
17053;DHT22;8643;48.824;11.422;2024-01-11T02:45:17;-7.60;99.90
17053;DHT22;8643;48.824;11.422;2024-01-11T02:47:46;-7.60;99.90
17053;DHT22;8643;48.824;11.422;2024-01-11T02:50:14;-7.60;99.90
17053;DHT22;8643;48.824;11.422;2024-01-11T02:52:42;-7.90;99.90
17053;DHT22;8643;48.824;11.422;2024-01-11T02:55:10;-7.60;99.90
17053;DHT22;8643;48.824;11.422;2024-01-11T02:57:39;-7.60;99.90
17053;DHT22;8643;48.824;11.422;2024-01-11T03:00:10;-7.70;99.90
17053;DHT22;8643;48.824;11.422;2024-01-11T03:02:39;-7.70;99.90
17053;DHT22;8643;48.824;11.422;2024-01-11T03:05:08;-7.70;99.90
17053;DHT22;8643;48.824;11.422;2024-01-11T03:07:37;-7.70;99.90
17053;DHT22;8643;48.824;11.422;2024-01-11T03:10:06;-7.70;99.90
17053;DHT22;8643;48.824;11.422;2024-01-11T03:15:04;-7.60;99.90
17053;DHT22;8643;48.824;11.422;2024-01-11T03:17:35;-7.70;99.90
17053;DHT22;8643;48.824;11.422;2024-01-11T03:20:04;-7.70;99.90
17053;DHT22;8643;48.824;11.422;2024-01-11T03:22:33;-7.70;99.90
17053;DHT22;8643;48.824;11.422;2024-01-11T03:25:02;-7.70;99.90
17053;DHT22;8643;48.824;11.422;2024-01-11T03:27:31;-7.70;99.90
17053;DHT22;8643;48.824;11.422;2024-01-11T03:29:59;-7.60;99.90
17053;DHT22;8643;48.824;11.422;2024-01-11T03:32:28;-7.60;99.90
17053;DHT22;8643;48.824;11.422;2024-01-11T03:34:58;-7.70;99.90
17053;DHT22;8643;48.824;11.422;2024-01-11T03:37:27;-7.70;99.90
17053;DHT22;8643;48.824;11.422;2024-01-11T03:39:55;-7.70;99.90
17053;DHT22;8643;48.824;11.422;2024-01-11T03:42:23;-7.70;99.90
17053;DHT22;8643;48.824;11.422;2024-01-11T03:44:52;-7.60;99.90
17053;DHT22;8643;48.824;11.422;2024-01-11T03:47:20;-7.50;99.90
17053;DHT22;8643;48.824;11.422;2024-01-11T03:49:49;-7.50;99.90
17053;DHT22;8643;48.824;11.422;2024-01-11T03:52:20;-7.50;99.90
17053;DHT22;8643;48.824;11.422;2024-01-11T03:54:48;-7.50;99.90
17053;DHT22;8643;48.824;11.422;2024-01-11T03:57:16;-7.60;99.90
17053;DHT22;8643;48.824;11.422;2024-01-11T03:59:45;-7.50;99.90
17053;DHT22;8643;48.824;11.422;2024-01-11T04:02:14;-7.70;99.90
17053;DHT22;8643;48.824;11.422;2024-01-11T04:04:42;-7.70;99.90
17053;DHT22;8643;48.824;11.422;2024-01-11T04:09:41;-7.80;99.90
17053;DHT22;8643;48.824;11.422;2024-01-11T04:12:09;-7.80;99.90
17053;DHT22;8643;48.824;11.422;2024-01-11T04:14:38;-7.90;99.90
17053;DHT22;8643;48.824;11.422;2024-01-11T04:17:07;-7.90;99.90
17053;DHT22;8643;48.824;11.422;2024-01-11T04:19:36;-7.80;99.90
17053;DHT22;8643;48.824;11.422;2024-01-11T04:22:04;-7.90;99.90
17053;DHT22;8643;48.824;11.422;2024-01-11T04:24:33;-7.90;99.90
17053;DHT22;8643;48.824;11.422;2024-01-11T04:27:03;-7.90;99.90
17053;DHT22;8643;48.824;11.422;2024-01-11T04:29:31;-8.00;99.90
17053;DHT22;8643;48.824;11.422;2024-01-11T04:32:00;-7.90;99.90
17053;DHT22;8643;48.824;11.422;2024-01-11T04:34:30;-7.90;99.90
17053;DHT22;8643;48.824;11.422;2024-01-11T04:36:58;-8.00;99.90
17053;DHT22;8643;48.824;11.422;2024-01-11T04:39:27;-8.00;99.90
17053;DHT22;8643;48.824;11.422;2024-01-11T04:41:55;-8.00;99.90
17053;DHT22;8643;48.824;11.422;2024-01-11T04:44:25;-8.80;99.90
17053;DHT22;8643;48.824;11.422;2024-01-11T04:46:54;-8.00;99.90
17053;DHT22;8643;48.824;11.422;2024-01-11T04:49:22;-8.00;99.90
17053;DHT22;8643;48.824;11.422;2024-01-11T04:51:51;-8.00;99.90
17053;DHT22;8643;48.824;11.422;2024-01-11T04:54:20;-8.00;99.90
17053;DHT22;8643;48.824;11.422;2024-01-11T04:59:17;-7.90;99.90
17053;DHT22;8643;48.824;11.422;2024-01-11T05:01:47;-8.00;99.90
17053;DHT22;8643;48.824;11.422;2024-01-11T05:04:15;-7.80;99.90
17053;DHT22;8643;48.824;11.422;2024-01-11T05:06:44;-7.80;99.90
17053;DHT22;8643;48.824;11.422;2024-01-11T05:09:12;-7.90;99.90
17053;DHT22;8643;48.824;11.422;2024-01-11T05:11:42;-7.80;99.90
17053;DHT22;8643;48.824;11.422;2024-01-11T05:14:10;-7.80;99.90
17053;DHT22;8643;48.824;11.422;2024-01-11T05:16:40;-7.80;99.90
17053;DHT22;8643;48.824;11.422;2024-01-11T05:19:10;-7.90;99.90
17053;DHT22;8643;48.824;11.422;2024-01-11T05:21:38;-7.90;99.90
17053;DHT22;8643;48.824;11.422;2024-01-11T05:24:07;-8.00;99.90
17053;DHT22;8643;48.824;11.422;2024-01-11T05:26:38;-8.00;99.90
17053;DHT22;8643;48.824;11.422;2024-01-11T05:31:36;-8.00;99.90
17053;DHT22;8643;48.824;11.422;2024-01-11T05:34:05;-7.90;99.90
17053;DHT22;8643;48.824;11.422;2024-01-11T05:36:35;-7.90;99.90
17053;DHT22;8643;48.824;11.422;2024-01-11T05:39:04;-7.90;99.90
17053;DHT22;8643;48.824;11.422;2024-01-11T05:41:32;-7.90;99.90
17053;DHT22;8643;48.824;11.422;2024-01-11T05:44:01;-7.80;99.90
17053;DHT22;8643;48.824;11.422;2024-01-11T05:46:31;-7.90;99.90
17053;DHT22;8643;48.824;11.422;2024-01-11T05:49:00;-8.00;99.90
17053;DHT22;8643;48.824;11.422;2024-01-11T05:51:28;-8.00;99.90
17053;DHT22;8643;48.824;11.422;2024-01-11T05:53:58;-8.10;99.90
17053;DHT22;8643;48.824;11.422;2024-01-11T05:56:26;-8.10;99.90
17053;DHT22;8643;48.824;11.422;2024-01-11T05:58:55;-8.10;99.90
17053;DHT22;8643;48.824;11.422;2024-01-11T06:01:24;-8.10;99.90
17053;DHT22;8643;48.824;11.422;2024-01-11T06:03:53;-8.20;99.90
17053;DHT22;8643;48.824;11.422;2024-01-11T06:06:22;-8.20;99.90
17053;DHT22;8643;48.824;11.422;2024-01-11T06:08:50;-8.30;99.90
17053;DHT22;8643;48.824;11.422;2024-01-11T06:11:20;-8.30;99.90
17053;DHT22;8643;48.824;11.422;2024-01-11T06:13:48;-8.30;99.90
17053;DHT22;8643;48.824;11.422;2024-01-11T06:16:20;-8.40;99.90
17053;DHT22;8643;48.824;11.422;2024-01-11T06:18:50;-8.30;99.90
17053;DHT22;8643;48.824;11.422;2024-01-11T06:23:47;-8.30;99.90
17053;DHT22;8643;48.824;11.422;2024-01-11T06:26:16;-8.30;99.90
17053;DHT22;8643;48.824;11.422;2024-01-11T06:28:46;-8.30;99.90
17053;DHT22;8643;48.824;11.422;2024-01-11T06:31:14;-8.30;99.90
17053;DHT22;8643;48.824;11.422;2024-01-11T06:33:44;-8.20;99.90
17053;DHT22;8643;48.824;11.422;2024-01-11T06:36:17;-8.30;99.90
17053;DHT22;8643;48.824;11.422;2024-01-11T06:38:45;-8.20;99.90
17053;DHT22;8643;48.824;11.422;2024-01-11T06:41:14;-8.20;99.90
17053;DHT22;8643;48.824;11.422;2024-01-11T06:43:42;-8.20;99.90
17053;DHT22;8643;48.824;11.422;2024-01-11T06:46:12;-8.20;99.90
17053;DHT22;8643;48.824;11.422;2024-01-11T06:48:41;-8.20;99.90
17053;DHT22;8643;48.824;11.422;2024-01-11T06:51:09;-8.20;99.90
17053;DHT22;8643;48.824;11.422;2024-01-11T06:53:37;-8.20;99.90
17053;DHT22;8643;48.824;11.422;2024-01-11T06:56:14;-8.20;99.90
17053;DHT22;8643;48.824;11.422;2024-01-11T06:58:43;-8.10;99.90
17053;DHT22;8643;48.824;11.422;2024-01-11T07:01:13;-8.00;99.90
17053;DHT22;8643;48.824;11.422;2024-01-11T07:03:42;-7.90;99.90
17053;DHT22;8643;48.824;11.422;2024-01-11T07:06:10;-7.90;99.90
17053;DHT22;8643;48.824;11.422;2024-01-11T07:08:39;-7.90;99.90
17053;DHT22;8643;48.824;11.422;2024-01-11T07:11:08;-8.00;99.90
17053;DHT22;8643;48.824;11.422;2024-01-11T07:13:36;-8.10;99.90
17053;DHT22;8643;48.824;11.422;2024-01-11T07:16:05;-8.10;99.90
17053;DHT22;8643;48.824;11.422;2024-01-11T07:18:35;-7.90;99.90
17053;DHT22;8643;48.824;11.422;2024-01-11T07:21:04;-8.10;99.90
17053;DHT22;8643;48.824;11.422;2024-01-11T07:23:32;-8.10;99.90
17053;DHT22;8643;48.824;11.422;2024-01-11T07:26:01;-8.00;99.90
17053;DHT22;8643;48.824;11.422;2024-01-11T07:28:29;-8.00;99.90
17053;DHT22;8643;48.824;11.422;2024-01-11T07:30:58;-7.90;99.90
17053;DHT22;8643;48.824;11.422;2024-01-11T07:33:26;-7.80;99.90
17053;DHT22;8643;48.824;11.422;2024-01-11T07:35:56;-7.70;99.90
17053;DHT22;8643;48.824;11.422;2024-01-11T07:38:25;-7.60;99.90
17053;DHT22;8643;48.824;11.422;2024-01-11T07:40:54;-7.50;99.90
17053;DHT22;8643;48.824;11.422;2024-01-11T07:43:23;-7.50;99.90
17053;DHT22;8643;48.824;11.422;2024-01-11T07:46:04;-7.50;99.90
17053;DHT22;8643;48.824;11.422;2024-01-11T07:51:04;-7.30;99.90
17053;DHT22;8643;48.824;11.422;2024-01-11T07:53:33;-8.50;99.90
17053;DHT22;8643;48.824;11.422;2024-01-11T07:56:01;-7.10;99.90
17053;DHT22;8643;48.824;11.422;2024-01-11T07:58:30;-6.90;99.90
17053;DHT22;8643;48.824;11.422;2024-01-11T08:00:58;-6.80;99.90
17053;DHT22;8643;48.824;11.422;2024-01-11T08:03:27;-6.60;99.90
17053;DHT22;8643;48.824;11.422;2024-01-11T08:05:55;-6.40;99.90
17053;DHT22;8643;48.824;11.422;2024-01-11T08:08:25;-6.20;99.90
17053;DHT22;8643;48.824;11.422;2024-01-11T08:10:54;-6.00;99.90
17053;DHT22;8643;48.824;11.422;2024-01-11T08:13:23;-5.90;99.90
17053;DHT22;8643;48.824;11.422;2024-01-11T08:15:52;-5.60;99.90
17053;DHT22;8643;48.824;11.422;2024-01-11T08:18:21;-5.30;99.90
17053;DHT22;8643;48.824;11.422;2024-01-11T08:20:49;-5.20;99.90
17053;DHT22;8643;48.824;11.422;2024-01-11T08:23:18;-5.20;99.90
17053;DHT22;8643;48.824;11.422;2024-01-11T08:25:49;-5.10;99.90
17053;DHT22;8643;48.824;11.422;2024-01-11T08:28:19;-5.10;99.90
17053;DHT22;8643;48.824;11.422;2024-01-11T08:35:46;-5.50;99.90
17053;DHT22;8643;48.824;11.422;2024-01-11T08:38:15;-5.70;99.90
17053;DHT22;8643;48.824;11.422;2024-01-11T08:40:44;-5.70;99.90
17053;DHT22;8643;48.824;11.422;2024-01-11T08:43:14;-5.70;99.90
17053;DHT22;8643;48.824;11.422;2024-01-11T08:45:43;-5.80;99.90
17053;DHT22;8643;48.824;11.422;2024-01-11T08:48:11;-5.70;99.90
17053;DHT22;8643;48.824;11.422;2024-01-11T08:50:40;-5.70;99.90
17053;DHT22;8643;48.824;11.422;2024-01-11T08:53:09;-5.60;99.90
17053;DHT22;8643;48.824;11.422;2024-01-11T08:55:37;-5.60;99.90
17053;DHT22;8643;48.824;11.422;2024-01-11T08:58:05;-5.50;99.90
17053;DHT22;8643;48.824;11.422;2024-01-11T09:00:35;-5.40;99.90
17053;DHT22;8643;48.824;11.422;2024-01-11T09:03:04;-5.50;99.90
17053;DHT22;8643;48.824;11.422;2024-01-11T09:05:33;-5.40;99.90
17053;DHT22;8643;48.824;11.422;2024-01-11T09:08:02;-5.30;99.90
17053;DHT22;8643;48.824;11.422;2024-01-11T09:10:34;-5.20;99.90
17053;DHT22;8643;48.824;11.422;2024-01-11T09:13:03;-5.20;99.90
17053;DHT22;8643;48.824;11.422;2024-01-11T09:15:31;-5.00;99.90
17053;DHT22;8643;48.824;11.422;2024-01-11T09:18:01;-5.00;99.90
17053;DHT22;8643;48.824;11.422;2024-01-11T09:20:31;-4.90;99.90
17053;DHT22;8643;48.824;11.422;2024-01-11T09:25:31;-4.60;99.90
17053;DHT22;8643;48.824;11.422;2024-01-11T09:27:59;-4.50;99.90
17053;DHT22;8643;48.824;11.422;2024-01-11T09:32:57;-4.50;99.90
17053;DHT22;8643;48.824;11.422;2024-01-11T09:35:27;-4.40;99.90
17053;DHT22;8643;48.824;11.422;2024-01-11T09:37:55;-4.30;99.90
17053;DHT22;8643;48.824;11.422;2024-01-11T09:40:24;-4.30;99.90
17053;DHT22;8643;48.824;11.422;2024-01-11T09:42:52;-4.20;99.90
17053;DHT22;8643;48.824;11.422;2024-01-11T09:45:22;-4.20;99.90
17053;DHT22;8643;48.824;11.422;2024-01-11T09:47:50;-4.10;99.90
17053;DHT22;8643;48.824;11.422;2024-01-11T09:50:21;-4.10;99.90
17053;DHT22;8643;48.824;11.422;2024-01-11T09:52:53;-4.10;99.90
17053;DHT22;8643;48.824;11.422;2024-01-11T09:55:21;-4.00;99.90
17053;DHT22;8643;48.824;11.422;2024-01-11T09:57:53;-4.00;99.90
17053;DHT22;8643;48.824;11.422;2024-01-11T10:00:27;-3.90;99.90
17053;DHT22;8643;48.824;11.422;2024-01-11T10:02:56;-3.90;99.90
17053;DHT22;8643;48.824;11.422;2024-01-11T10:05:25;-3.90;99.90
17053;DHT22;8643;48.824;11.422;2024-01-11T10:07:56;-3.80;99.90
17053;DHT22;8643;48.824;11.422;2024-01-11T10:12:54;-3.70;99.90
17053;DHT22;8643;48.824;11.422;2024-01-11T10:15:24;-3.70;99.90
17053;DHT22;8643;48.824;11.422;2024-01-11T10:17:53;-3.60;99.90
17053;DHT22;8643;48.824;11.422;2024-01-11T10:20:22;-3.60;99.90
17053;DHT22;8643;48.824;11.422;2024-01-11T10:25:23;-3.50;99.90
17053;DHT22;8643;48.824;11.422;2024-01-11T10:27:52;-3.50;99.90
17053;DHT22;8643;48.824;11.422;2024-01-11T10:30:20;-3.50;99.90
17053;DHT22;8643;48.824;11.422;2024-01-11T10:32:49;-3.40;99.90
17053;DHT22;8643;48.824;11.422;2024-01-11T10:35:18;-3.40;99.90
17053;DHT22;8643;48.824;11.422;2024-01-11T10:37:51;-3.40;99.90
17053;DHT22;8643;48.824;11.422;2024-01-11T10:40:23;-3.40;99.90
17053;DHT22;8643;48.824;11.422;2024-01-11T10:42:53;-3.30;99.90
17053;DHT22;8643;48.824;11.422;2024-01-11T10:45:25;-3.20;99.90
17053;DHT22;8643;48.824;11.422;2024-01-11T10:47:56;-4.50;99.90
17053;DHT22;8643;48.824;11.422;2024-01-11T10:50:34;-3.10;99.90
17053;DHT22;8643;48.824;11.422;2024-01-11T10:53:17;-3.10;99.90
17053;DHT22;8643;48.824;11.422;2024-01-11T10:55:59;-3.10;99.90
17053;DHT22;8643;48.824;11.422;2024-01-11T10:58:30;-3.00;99.90
17053;DHT22;8643;48.824;11.422;2024-01-11T11:01:02;-2.90;99.90
17053;DHT22;8643;48.824;11.422;2024-01-11T11:03:33;-0.80;99.90
17053;DHT22;8643;48.824;11.422;2024-01-11T11:06:05;-2.80;99.90
17053;DHT22;8643;48.824;11.422;2024-01-11T11:08:36;-2.80;99.90
17053;DHT22;8643;48.824;11.422;2024-01-11T11:11:07;-2.70;99.90
17053;DHT22;8643;48.824;11.422;2024-01-11T11:13:38;-2.70;99.90
17053;DHT22;8643;48.824;11.422;2024-01-11T11:16:08;-2.70;99.90
17053;DHT22;8643;48.824;11.422;2024-01-11T11:18:37;-2.70;99.90
17053;DHT22;8643;48.824;11.422;2024-01-11T11:21:10;-2.60;99.90
17053;DHT22;8643;48.824;11.422;2024-01-11T11:23:39;-2.50;99.90
17053;DHT22;8643;48.824;11.422;2024-01-11T11:26:14;-2.50;99.90
17053;DHT22;8643;48.824;11.422;2024-01-11T11:28:44;-2.50;99.90
17053;DHT22;8643;48.824;11.422;2024-01-11T11:31:34;-2.50;99.90
17053;DHT22;8643;48.824;11.422;2024-01-11T11:34:04;-2.40;99.90
17053;DHT22;8643;48.824;11.422;2024-01-11T11:36:34;-2.40;99.90
17053;DHT22;8643;48.824;11.422;2024-01-11T11:39:02;-2.40;99.90
17053;DHT22;8643;48.824;11.422;2024-01-11T11:41:32;-2.40;99.90
17053;DHT22;8643;48.824;11.422;2024-01-11T11:44:02;-2.40;99.90
17053;DHT22;8643;48.824;11.422;2024-01-11T11:46:31;-2.30;99.90
17053;DHT22;8643;48.824;11.422;2024-01-11T11:49:00;-2.20;99.90
17053;DHT22;8643;48.824;11.422;2024-01-11T11:51:29;-2.20;99.90
17053;DHT22;8643;48.824;11.422;2024-01-11T11:53:58;-2.10;99.90
17053;DHT22;8643;48.824;11.422;2024-01-11T11:56:27;-2.10;99.90
17053;DHT22;8643;48.824;11.422;2024-01-11T11:59:00;-2.00;99.90
17053;DHT22;8643;48.824;11.422;2024-01-11T12:01:31;-2.00;99.90
17053;DHT22;8643;48.824;11.422;2024-01-11T12:04:01;-2.10;99.90
17053;DHT22;8643;48.824;11.422;2024-01-11T12:06:30;-2.00;99.90
17053;DHT22;8643;48.824;11.422;2024-01-11T12:11:27;-1.80;99.90
17053;DHT22;8643;48.824;11.422;2024-01-11T12:13:59;-1.80;99.90
17053;DHT22;8643;48.824;11.422;2024-01-11T12:16:28;-1.80;99.90
17053;DHT22;8643;48.824;11.422;2024-01-11T12:18:56;-1.70;99.90
17053;DHT22;8643;48.824;11.422;2024-01-11T12:21:25;-1.70;99.90
17053;DHT22;8643;48.824;11.422;2024-01-11T12:23:54;-1.60;99.90
17053;DHT22;8643;48.824;11.422;2024-01-11T12:26:23;-1.50;99.90
17053;DHT22;8643;48.824;11.422;2024-01-11T12:28:52;-1.40;99.90
17053;DHT22;8643;48.824;11.422;2024-01-11T12:31:23;-1.20;99.90
17053;DHT22;8643;48.824;11.422;2024-01-11T12:33:52;-1.10;99.90
17053;DHT22;8643;48.824;11.422;2024-01-11T12:36:22;0.20;99.90
17053;DHT22;8643;48.824;11.422;2024-01-11T12:38:52;1.40;99.90
17053;DHT22;8643;48.824;11.422;2024-01-11T12:41:22;2.60;99.90
17053;DHT22;8643;48.824;11.422;2024-01-11T12:43:51;3.80;99.90
17053;DHT22;8643;48.824;11.422;2024-01-11T12:46:20;4.60;99.90
17053;DHT22;8643;48.824;11.422;2024-01-11T12:48:51;5.00;99.90
17053;DHT22;8643;48.824;11.422;2024-01-11T12:51:20;5.90;99.90
17053;DHT22;8643;48.824;11.422;2024-01-11T12:53:51;6.60;98.70
17053;DHT22;8643;48.824;11.422;2024-01-11T12:56:21;6.70;96.50
17053;DHT22;8643;48.824;11.422;2024-01-11T12:58:50;7.00;93.40
17053;DHT22;8643;48.824;11.422;2024-01-11T13:01:19;7.20;92.80
17053;DHT22;8643;48.824;11.422;2024-01-11T13:03:48;7.60;91.30
17053;DHT22;8643;48.824;11.422;2024-01-11T13:06:19;7.70;89.20
17053;DHT22;8643;48.824;11.422;2024-01-11T13:08:47;7.50;88.30
17053;DHT22;8643;48.824;11.422;2024-01-11T13:11:17;7.70;87.80
17053;DHT22;8643;48.824;11.422;2024-01-11T13:13:48;7.40;85.70
17053;DHT22;8643;48.824;11.422;2024-01-11T13:16:17;7.10;86.10
17053;DHT22;8643;48.824;11.422;2024-01-11T13:18:46;6.80;87.00
17053;DHT22;8643;48.824;11.422;2024-01-11T13:21:15;6.90;87.70
17053;DHT22;8643;48.824;11.422;2024-01-11T13:23:45;6.90;88.00
17053;DHT22;8643;48.824;11.422;2024-01-11T13:26:14;7.80;86.70
17053;DHT22;8643;48.824;11.422;2024-01-11T13:28:43;7.90;83.30
17053;DHT22;8643;48.824;11.422;2024-01-11T13:31:11;7.70;82.30
17053;DHT22;8643;48.824;11.422;2024-01-11T13:33:40;7.30;83.40
17053;DHT22;8643;48.824;11.422;2024-01-11T13:36:09;6.80;84.10
17053;DHT22;8643;48.824;11.422;2024-01-11T13:38:38;6.20;87.00
17053;DHT22;8643;48.824;11.422;2024-01-11T13:41:08;6.00;87.20
17053;DHT22;8643;48.824;11.422;2024-01-11T13:43:36;6.00;87.20
17053;DHT22;8643;48.824;11.422;2024-01-11T13:46:05;5.90;89.90
17053;DHT22;8643;48.824;11.422;2024-01-11T13:48:33;6.00;89.50
17053;DHT22;8643;48.824;11.422;2024-01-11T13:51:02;5.80;89.60
17053;DHT22;8643;48.824;11.422;2024-01-11T13:53:32;5.20;90.30
17053;DHT22;8643;48.824;11.422;2024-01-11T13:56:00;5.40;90.30
17053;DHT22;8643;48.824;11.422;2024-01-11T13:58:31;4.80;91.10
17053;DHT22;8643;48.824;11.422;2024-01-11T14:00:59;4.90;91.40
17053;DHT22;8643;48.824;11.422;2024-01-11T14:03:28;3.90;92.80
17053;DHT22;8643;48.824;11.422;2024-01-11T14:05:56;3.80;93.10
17053;DHT22;8643;48.824;11.422;2024-01-11T14:08:25;4.90;92.50
17053;DHT22;8643;48.824;11.422;2024-01-11T14:10:54;5.40;91.60
17053;DHT22;8643;48.824;11.422;2024-01-11T14:13:23;5.60;90.50
17053;DHT22;8643;48.824;11.422;2024-01-11T14:15:53;4.90;91.80
17053;DHT22;8643;48.824;11.422;2024-01-11T14:18:22;5.00;92.10
17053;DHT22;8643;48.824;11.422;2024-01-11T14:20:51;5.50;91.40
17053;DHT22;8643;48.824;11.422;2024-01-11T14:23:20;5.40;91.30
17053;DHT22;8643;48.824;11.422;2024-01-11T14:25:48;5.70;90.30
17053;DHT22;8643;48.824;11.422;2024-01-11T14:28:17;5.70;90.20
17053;DHT22;8643;48.824;11.422;2024-01-11T14:30:45;5.70;90.70
17053;DHT22;8643;48.824;11.422;2024-01-11T14:33:15;5.00;90.80
17053;DHT22;8643;48.824;11.422;2024-01-11T14:35:44;4.50;91.40
17053;DHT22;8643;48.824;11.422;2024-01-11T14:38:13;4.40;92.20
17053;DHT22;8643;48.824;11.422;2024-01-11T14:40:42;4.30;92.60
17053;DHT22;8643;48.824;11.422;2024-01-11T14:43:10;4.10;92.50
17053;DHT22;8643;48.824;11.422;2024-01-11T14:45:38;3.60;93.30
17053;DHT22;8643;48.824;11.422;2024-01-11T14:48:07;3.20;94.10
17053;DHT22;8643;48.824;11.422;2024-01-11T14:50:37;2.80;95.10
17053;DHT22;8643;48.824;11.422;2024-01-11T14:53:06;3.20;95.60
17053;DHT22;8643;48.824;11.422;2024-01-11T14:55:35;3.50;95.40
17053;DHT22;8643;48.824;11.422;2024-01-11T14:58:04;3.80;94.20
17053;DHT22;8643;48.824;11.422;2024-01-11T15:00:33;3.50;94.50
17053;DHT22;8643;48.824;11.422;2024-01-11T15:05:31;3.10;95.40
17053;DHT22;8643;48.824;11.422;2024-01-11T15:08:01;2.70;95.50
17053;DHT22;8643;48.824;11.422;2024-01-11T15:10:30;2.30;96.10
17053;DHT22;8643;48.824;11.422;2024-01-11T15:12:59;1.80;97.10
17053;DHT22;8643;48.824;11.422;2024-01-11T15:15:27;1.40;99.00
17053;DHT22;8643;48.824;11.422;2024-01-11T15:17:56;0.90;99.90
17053;DHT22;8643;48.824;11.422;2024-01-11T15:20:25;0.50;99.90
17053;DHT22;8643;48.824;11.422;2024-01-11T15:22:53;0.20;99.90
17053;DHT22;8643;48.824;11.422;2024-01-11T15:25:23;-0.10;99.90
17053;DHT22;8643;48.824;11.422;2024-01-11T15:27:54;-0.50;99.90
17053;DHT22;8643;48.824;11.422;2024-01-11T15:30:22;-0.60;99.90
17053;DHT22;8643;48.824;11.422;2024-01-11T15:32:51;-0.90;99.90
17053;DHT22;8643;48.824;11.422;2024-01-11T15:35:22;-1.10;99.90
17053;DHT22;8643;48.824;11.422;2024-01-11T15:37:50;-0.10;99.90
17053;DHT22;8643;48.824;11.422;2024-01-11T15:40:19;-1.30;99.90
17053;DHT22;8643;48.824;11.422;2024-01-11T15:42:49;-1.40;99.90
17053;DHT22;8643;48.824;11.422;2024-01-11T15:45:17;-1.60;99.90
17053;DHT22;8643;48.824;11.422;2024-01-11T15:47:47;-1.60;99.90
17053;DHT22;8643;48.824;11.422;2024-01-11T15:50:15;-1.70;99.90
17053;DHT22;8643;48.824;11.422;2024-01-11T15:52:44;-1.80;99.90
17053;DHT22;8643;48.824;11.422;2024-01-11T15:55:12;-2.00;99.90
17053;DHT22;8643;48.824;11.422;2024-01-11T15:57:41;-2.10;99.90
17053;DHT22;8643;48.824;11.422;2024-01-11T16:00:12;-2.20;99.90
17053;DHT22;8643;48.824;11.422;2024-01-11T16:02:41;-2.30;99.90
17053;DHT22;8643;48.824;11.422;2024-01-11T16:05:10;-2.40;99.90
17053;DHT22;8643;48.824;11.422;2024-01-11T16:07:39;-2.40;99.90
17053;DHT22;8643;48.824;11.422;2024-01-11T16:10:08;-2.60;99.90
17053;DHT22;8643;48.824;11.422;2024-01-11T16:12:37;-2.60;99.90
17053;DHT22;8643;48.824;11.422;2024-01-11T16:15:06;-2.60;99.90
17053;DHT22;8643;48.824;11.422;2024-01-11T16:17:38;-2.60;99.90
17053;DHT22;8643;48.824;11.422;2024-01-11T16:20:08;-2.70;99.90
17053;DHT22;8643;48.824;11.422;2024-01-11T16:22:38;-2.70;99.90
17053;DHT22;8643;48.824;11.422;2024-01-11T16:25:07;-2.90;99.90